sensor_id;sensor_type;location;lat;lon;timestamp;pressure;altitude;pressure_sealevel;temperature;humidity
6425;BME280;12193;42.642;23.384;2022-07-06T00:01:48;94424.91;;;19.08;100.00
6425;BME280;12193;42.642;23.384;2022-07-06T00:04:19;94415.97;;;19.04;100.00
6425;BME280;12193;42.642;23.384;2022-07-06T00:06:48;94418.56;;;18.99;100.00
6425;BME280;12193;42.642;23.384;2022-07-06T00:09:18;94418.59;;;19.04;100.00
6425;BME280;12193;42.642;23.384;2022-07-06T00:11:47;94436.22;;;19.04;100.00
6425;BME280;12193;42.642;23.384;2022-07-06T00:14:16;94433.75;;;19.24;100.00
6425;BME280;12193;42.642;23.384;2022-07-06T00:16:49;94438.31;;;19.38;100.00
6425;BME280;12193;42.642;23.384;2022-07-06T00:19:18;94429.28;;;19.24;100.00
6425;BME280;12193;42.642;23.384;2022-07-06T00:21:47;94431.06;;;19.14;100.00
6425;BME280;12193;42.642;23.384;2022-07-06T00:24:16;94433.47;;;19.20;100.00
6425;BME280;12193;42.642;23.384;2022-07-06T00:26:47;94441.13;;;19.22;100.00
6425;BME280;12193;42.642;23.384;2022-07-06T00:29:16;94449.84;;;19.27;100.00
6425;BME280;12193;42.642;23.384;2022-07-06T00:31:48;94461.22;;;19.33;100.00
6425;BME280;12193;42.642;23.384;2022-07-06T00:34:17;94461.00;;;19.39;100.00
6425;BME280;12193;42.642;23.384;2022-07-06T00:36:46;94475.81;;;19.45;100.00
6425;BME280;12193;42.642;23.384;2022-07-06T00:39:16;94466.31;;;19.44;100.00
6425;BME280;12193;42.642;23.384;2022-07-06T00:41:45;94468.91;;;19.39;100.00
6425;BME280;12193;42.642;23.384;2022-07-06T00:44:14;94465.31;;;19.55;100.00
6425;BME280;12193;42.642;23.384;2022-07-06T00:46:44;94479.81;;;19.58;100.00
6425;BME280;12193;42.642;23.384;2022-07-06T00:49:16;94470.09;;;19.63;100.00
6425;BME280;12193;42.642;23.384;2022-07-06T00:51:57;94468.00;;;19.70;100.00
6425;BME280;12193;42.642;23.384;2022-07-06T00:54:28;94469.84;;;19.65;100.00
6425;BME280;12193;42.642;23.384;2022-07-06T00:56:59;94472.19;;;19.61;100.00
6425;BME280;12193;42.642;23.384;2022-07-06T00:59:29;94454.81;;;19.65;100.00
6425;BME280;12193;42.642;23.384;2022-07-06T01:01:58;94453.13;;;19.49;100.00
6425;BME280;12193;42.642;23.384;2022-07-06T01:04:30;94450.00;;;19.52;100.00
6425;BME280;12193;42.642;23.384;2022-07-06T01:07:00;94445.06;;;19.71;100.00
6425;BME280;12193;42.642;23.384;2022-07-06T01:09:31;94430.53;;;19.63;100.00
6425;BME280;12193;42.642;23.384;2022-07-06T01:12:00;94427.06;;;19.58;100.00
6425;BME280;12193;42.642;23.384;2022-07-06T01:14:30;94420.19;;;19.52;100.00
6425;BME280;12193;42.642;23.384;2022-07-06T01:17:01;94421.56;;;19.59;100.00
6425;BME280;12193;42.642;23.384;2022-07-06T01:19:33;94430.53;;;19.63;100.00
6425;BME280;12193;42.642;23.384;2022-07-06T01:22:05;94425.97;;;19.49;100.00
6425;BME280;12193;42.642;23.384;2022-07-06T01:24:35;94422.53;;;19.48;100.00
6425;BME280;12193;42.642;23.384;2022-07-06T01:27:05;94421.75;;;19.48;100.00
6425;BME280;12193;42.642;23.384;2022-07-06T01:29:35;94420.69;;;19.44;100.00
6425;BME280;12193;42.642;23.384;2022-07-06T01:32:05;94430.69;;;19.42;100.00
6425;BME280;12193;42.642;23.384;2022-07-06T01:34:34;94427.50;;;19.40;100.00
6425;BME280;12193;42.642;23.384;2022-07-06T01:37:06;94425.22;;;19.53;100.00
6425;BME280;12193;42.642;23.384;2022-07-06T01:39:36;94426.00;;;19.54;100.00
6425;BME280;12193;42.642;23.384;2022-07-06T01:42:05;94429.69;;;19.53;100.00
6425;BME280;12193;42.642;23.384;2022-07-06T01:44:34;94425.22;;;19.53;100.00
6425;BME280;12193;42.642;23.384;2022-07-06T01:47:04;94428.91;;;19.57;100.00
6425;BME280;12193;42.642;23.384;2022-07-06T01:49:33;94416.28;;;19.59;100.00
6425;BME280;12193;42.642;23.384;2022-07-06T01:52:05;94420.00;;;19.68;100.00
6425;BME280;12193;42.642;23.384;2022-07-06T01:54:35;94428.34;;;19.45;100.00
6425;BME280;12193;42.642;23.384;2022-07-06T01:57:05;94434.69;;;19.54;100.00
6425;BME280;12193;42.642;23.384;2022-07-06T01:59:34;94434.66;;;19.44;100.00
6425;BME280;12193;42.642;23.384;2022-07-06T02:02:03;94441.25;;;19.47;100.00
6425;BME280;12193;42.642;23.384;2022-07-06T02:04:33;94443.25;;;19.25;100.00
6425;BME280;12193;42.642;23.384;2022-07-06T02:07:03;94448.84;;;19.33;100.00
6425;BME280;12193;42.642;23.384;2022-07-06T02:09:35;94440.69;;;19.40;100.00
6425;BME280;12193;42.642;23.384;2022-07-06T02:12:05;94445.22;;;19.49;100.00
6425;BME280;12193;42.642;23.384;2022-07-06T02:14:34;94445.41;;;19.38;100.00
6425;BME280;12193;42.642;23.384;2022-07-06T02:17:04;94443.84;;;19.37;100.00
6425;BME280;12193;42.642;23.384;2022-07-06T02:19:33;94445.97;;;19.35;100.00
6425;BME280;12193;42.642;23.384;2022-07-06T02:22:03;94444.84;;;19.26;100.00
6425;BME280;12193;42.642;23.384;2022-07-06T02:24:35;94450.72;;;19.06;100.00
6425;BME280;12193;42.642;23.384;2022-07-06T02:27:04;94454.22;;;19.12;100.00
6425;BME280;12193;42.642;23.384;2022-07-06T02:29:34;94452.69;;;19.16;100.00
6425;BME280;12193;42.642;23.384;2022-07-06T02:32:03;94450.44;;;19.03;100.00
6425;BME280;12193;42.642;23.384;2022-07-06T02:34:32;94441.41;;;18.89;100.00
6425;BME280;12193;42.642;23.384;2022-07-06T02:37:02;94438.88;;;19.04;100.00
6425;BME280;12193;42.642;23.384;2022-07-06T02:39:34;94441.78;;;19.02;100.00
6425;BME280;12193;42.642;23.384;2022-07-06T02:42:04;94445.13;;;18.93;100.00
6425;BME280;12193;42.642;23.384;2022-07-06T02:44:33;94443.22;;;18.83;100.00
6425;BME280;12193;42.642;23.384;2022-07-06T02:47:03;94448.16;;;18.80;100.00
6425;BME280;12193;42.642;23.384;2022-07-06T02:49:32;94450.53;;;18.77;100.00
6425;BME280;12193;42.642;23.384;2022-07-06T02:52:02;94454.25;;;18.85;100.00
6425;BME280;12193;42.642;23.384;2022-07-06T02:54:34;94448.75;;;18.87;100.00
6425;BME280;12193;42.642;23.384;2022-07-06T02:59:39;94444.25;;;18.51;100.00
6425;BME280;12193;42.642;23.384;2022-07-06T03:02:09;94442.63;;;18.45;100.00
6425;BME280;12193;42.642;23.384;2022-07-06T03:04:38;94442.34;;;18.47;100.00
6425;BME280;12193;42.642;23.384;2022-07-06T03:07:07;94445.50;;;18.44;100.00
6425;BME280;12193;42.642;23.384;2022-07-06T03:09:39;94430.50;;;18.44;100.00
6425;BME280;12193;42.642;23.384;2022-07-06T03:12:09;94439.38;;;18.38;100.00
6425;BME280;12193;42.642;23.384;2022-07-06T03:14:39;94442.28;;;18.37;100.00
6425;BME280;12193;42.642;23.384;2022-07-06T03:17:08;94437.69;;;18.54;100.00
6425;BME280;12193;42.642;23.384;2022-07-06T03:19:38;94443.78;;;18.59;100.00
6425;BME280;12193;42.642;23.384;2022-07-06T03:22:08;94445.78;;;18.47;100.00
6425;BME280;12193;42.642;23.384;2022-07-06T03:24:39;94448.03;;;18.34;100.00
6425;BME280;12193;42.642;23.384;2022-07-06T03:27:09;94455.16;;;18.65;100.00
6425;BME280;12193;42.642;23.384;2022-07-06T03:29:38;94460.78;;;18.73;100.00
6425;BME280;12193;42.642;23.384;2022-07-06T03:32:08;94457.88;;;18.75;100.00
6425;BME280;12193;42.642;23.384;2022-07-06T03:34:37;94461.09;;;18.82;100.00
6425;BME280;12193;42.642;23.384;2022-07-06T03:37:06;94468.53;;;18.89;100.00
6425;BME280;12193;42.642;23.384;2022-07-06T03:39:39;94466.91;;;18.83;100.00
6425;BME280;12193;42.642;23.384;2022-07-06T03:42:08;94472.19;;;18.83;100.00
6425;BME280;12193;42.642;23.384;2022-07-06T03:44:37;94470.59;;;18.83;100.00
6425;BME280;12193;42.642;23.384;2022-07-06T03:47:07;94470.59;;;18.83;100.00
6425;BME280;12193;42.642;23.384;2022-07-06T03:49:36;94476.44;;;18.89;100.00
6425;BME280;12193;42.642;23.384;2022-07-06T03:52:06;94468.47;;;18.80;100.00
6425;BME280;12193;42.642;23.384;2022-07-06T03:54:35;94467.63;;;18.74;100.00
6425;BME280;12193;42.642;23.384;2022-07-06T03:57:07;94475.97;;;18.66;100.00
6425;BME280;12193;42.642;23.384;2022-07-06T03:59:37;94467.75;;;18.89;100.00
6425;BME280;12193;42.642;23.384;2022-07-06T04:02:07;94471.78;;;19.01;100.00
6425;BME280;12193;42.642;23.384;2022-07-06T04:04:37;94472.03;;;19.00;100.00
6425;BME280;12193;42.642;23.384;2022-07-06T04:07:06;94474.16;;;19.03;100.00
6425;BME280;12193;42.642;23.384;2022-07-06T04:09:35;94473.66;;;19.06;100.00
6425;BME280;12193;42.642;23.384;2022-07-06T04:12:07;94472.84;;;19.00;100.00
6425;BME280;12193;42.642;23.384;2022-07-06T04:14:36;94483.94;;;19.07;100.00
6425;BME280;12193;42.642;23.384;2022-07-06T04:17:06;94478.56;;;19.24;100.00
6425;BME280;12193;42.642;23.384;2022-07-06T04:19:48;94481.59;;;19.47;100.00
6425;BME280;12193;42.642;23.384;2022-07-06T04:22:17;94482.44;;;19.58;100.00
6425;BME280;12193;42.642;23.384;2022-07-06T04:24:55;94482.28;;;19.74;100.00
6425;BME280;12193;42.642;23.384;2022-07-06T04:27:27;94479.09;;;19.72;100.00
6425;BME280;12193;42.642;23.384;2022-07-06T04:29:57;94478.66;;;19.85;100.00
6425;BME280;12193;42.642;23.384;2022-07-06T04:32:26;94485.84;;;19.99;100.00
6425;BME280;12193;42.642;23.384;2022-07-06T04:34:55;94486.38;;;20.01;100.00
6425;BME280;12193;42.642;23.384;2022-07-06T04:37:25;94490.38;;;20.04;100.00
6425;BME280;12193;42.642;23.384;2022-07-06T04:39:54;94497.78;;;20.07;100.00
6425;BME280;12193;42.642;23.384;2022-07-06T04:42:23;94488.34;;;20.36;100.00
6425;BME280;12193;42.642;23.384;2022-07-06T04:44:55;94495.75;;;20.49;100.00
6425;BME280;12193;42.642;23.384;2022-07-06T04:47:25;94501.59;;;20.56;100.00
6425;BME280;12193;42.642;23.384;2022-07-06T04:49:54;94501.06;;;20.59;100.00
6425;BME280;12193;42.642;23.384;2022-07-06T04:52:23;94512.78;;;20.83;100.00
6425;BME280;12193;42.642;23.384;2022-07-06T04:54:54;94513.53;;;20.78;100.00
6425;BME280;12193;42.642;23.384;2022-07-06T04:57:23;94524.94;;;20.89;100.00
6425;BME280;12193;42.642;23.384;2022-07-06T04:59:58;94514.63;;;21.07;100.00
6425;BME280;12193;42.642;23.384;2022-07-06T05:02:27;94527.31;;;21.35;100.00
6425;BME280;12193;42.642;23.384;2022-07-06T05:04:57;94528.09;;;21.40;100.00
6425;BME280;12193;42.642;23.384;2022-07-06T05:07:27;94539.22;;;21.02;100.00
6425;BME280;12193;42.642;23.384;2022-07-06T05:09:58;94533.94;;;20.88;100.00
6425;BME280;12193;42.642;23.384;2022-07-06T05:12:27;94530.66;;;20.71;100.00
6425;BME280;12193;42.642;23.384;2022-07-06T05:14:59;94535.69;;;20.67;100.00
6425;BME280;12193;42.642;23.384;2022-07-06T05:17:29;94538.31;;;20.52;100.00
6425;BME280;12193;42.642;23.384;2022-07-06T05:19:58;94542.59;;;20.78;100.00
6425;BME280;12193;42.642;23.384;2022-07-06T05:22:28;94538.59;;;20.66;100.00
6425;BME280;12193;42.642;23.384;2022-07-06T05:24:57;94547.34;;;20.76;100.00
6425;BME280;12193;42.642;23.384;2022-07-06T05:27:26;94548.97;;;20.82;100.00
6425;BME280;12193;42.642;23.384;2022-07-06T05:29:56;94547.94;;;20.93;99.58
6425;BME280;12193;42.642;23.384;2022-07-06T05:32:27;94559.81;;;20.91;100.00
6425;BME280;12193;42.642;23.384;2022-07-06T05:34:57;94544.75;;;21.21;98.29
6425;BME280;12193;42.642;23.384;2022-07-06T05:37:26;94553.50;;;21.46;96.59
6425;BME280;12193;42.642;23.384;2022-07-06T05:39:58;94544.75;;;21.61;94.13
6425;BME280;12193;42.642;23.384;2022-07-06T05:42:27;94557.38;;;22.08;92.08
6425;BME280;12193;42.642;23.384;2022-07-06T05:44:57;94563.63;;;22.47;88.99
6425;BME280;12193;42.642;23.384;2022-07-06T05:47:29;94565.06;;;22.78;88.61
6425;BME280;12193;42.642;23.384;2022-07-06T05:50:11;94568.94;;;22.42;90.12
6425;BME280;12193;42.642;23.384;2022-07-06T05:52:44;94563.25;;;22.01;91.52
6425;BME280;12193;42.642;23.384;2022-07-06T05:55:14;94561.41;;;21.31;92.82
6425;BME280;12193;42.642;23.384;2022-07-06T05:57:43;94560.59;;;21.01;94.28
6425;BME280;12193;42.642;23.384;2022-07-06T06:00:13;94562.19;;;20.92;94.76
6425;BME280;12193;42.642;23.384;2022-07-06T06:02:45;94566.97;;;21.05;94.38
6425;BME280;12193;42.642;23.384;2022-07-06T06:05:15;94561.66;;;22.00;90.72
6425;BME280;12193;42.642;23.384;2022-07-06T06:07:45;94563.94;;;22.36;88.83
6425;BME280;12193;42.642;23.384;2022-07-06T06:10:18;94570.59;;;22.18;87.14
6425;BME280;12193;42.642;23.384;2022-07-06T06:12:47;94575.19;;;22.66;85.83
6425;BME280;12193;42.642;23.384;2022-07-06T06:15:17;94567.75;;;23.16;83.12
6425;BME280;12193;42.642;23.384;2022-07-06T06:17:49;94569.94;;;23.10;84.26
6425;BME280;12193;42.642;23.384;2022-07-06T06:20:18;94566.28;;;22.96;83.27
6425;BME280;12193;42.642;23.384;2022-07-06T06:22:49;94559.97;;;22.92;83.20
6425;BME280;12193;42.642;23.384;2022-07-06T06:25:20;94560.44;;;22.94;82.90
6425;BME280;12193;42.642;23.384;2022-07-06T06:27:50;94564.78;;;22.75;83.21
6425;BME280;12193;42.642;23.384;2022-07-06T06:30:23;94568.25;;;22.80;85.16
6425;BME280;12193;42.642;23.384;2022-07-06T06:33:10;94577.28;;;22.69;84.34
6425;BME280;12193;42.642;23.384;2022-07-06T06:35:42;94567.88;;;22.43;83.92
6425;BME280;12193;42.642;23.384;2022-07-06T06:38:13;94562.56;;;22.43;86.10
6425;BME280;12193;42.642;23.384;2022-07-06T06:40:43;94559.44;;;22.36;85.81
6425;BME280;12193;42.642;23.384;2022-07-06T06:43:12;94558.66;;;22.16;86.96
6425;BME280;12193;42.642;23.384;2022-07-06T06:45:41;94563.72;;;22.12;87.78
6425;BME280;12193;42.642;23.384;2022-07-06T06:48:15;94565.31;;;22.13;87.65
6425;BME280;12193;42.642;23.384;2022-07-06T06:50:45;94560.53;;;22.20;88.24
6425;BME280;12193;42.642;23.384;2022-07-06T06:53:15;94559.19;;;22.18;89.78
6425;BME280;12193;42.642;23.384;2022-07-06T06:55:44;94559.97;;;22.23;88.43
6425;BME280;12193;42.642;23.384;2022-07-06T06:58:13;94560.44;;;22.45;88.71
6425;BME280;12193;42.642;23.384;2022-07-06T07:00:42;94559.97;;;22.38;88.39
6425;BME280;12193;42.642;23.384;2022-07-06T07:03:16;94565.97;;;22.54;87.88
6425;BME280;12193;42.642;23.384;2022-07-06T07:05:45;94560.63;;;23.12;84.76
6425;BME280;12193;42.642;23.384;2022-07-06T07:08:15;94556.09;;;22.69;84.77
6425;BME280;12193;42.642;23.384;2022-07-06T07:10:44;94553.34;;;23.32;82.99
6425;BME280;12193;42.642;23.384;2022-07-06T07:13:14;94550.81;;;24.91;75.79
6425;BME280;12193;42.642;23.384;2022-07-06T07:15:43;94552.22;;;25.26;73.12
6425;BME280;12193;42.642;23.384;2022-07-06T07:18:12;94551.50;;;24.60;75.27
6425;BME280;12193;42.642;23.384;2022-07-06T07:20:44;94549.59;;;24.42;78.04
6425;BME280;12193;42.642;23.384;2022-07-06T07:23:13;94545.28;;;23.71;79.76
6425;BME280;12193;42.642;23.384;2022-07-06T07:25:43;94547.09;;;23.47;81.29
6425;BME280;12193;42.642;23.384;2022-07-06T07:28:12;94551.59;;;23.13;81.19
6425;BME280;12193;42.642;23.384;2022-07-06T07:30:42;94556.19;;;22.54;83.01
6425;BME280;12193;42.642;23.384;2022-07-06T07:33:11;94558.00;;;22.59;83.82
6425;BME280;12193;42.642;23.384;2022-07-06T07:35:40;94547.59;;;22.72;84.83
6425;BME280;12193;42.642;23.384;2022-07-06T07:38:12;94541.31;;;23.02;83.08
6425;BME280;12193;42.642;23.384;2022-07-06T07:40:41;94546.81;;;23.15;83.75
6425;BME280;12193;42.642;23.384;2022-07-06T07:43:11;94541.69;;;23.57;80.77
6425;BME280;12193;42.642;23.384;2022-07-06T07:45:40;94539.25;;;23.94;80.25
6425;BME280;12193;42.642;23.384;2022-07-06T07:48:09;94546.03;;;24.51;76.45
6425;BME280;12193;42.642;23.384;2022-07-06T07:50:38;94541.69;;;24.60;77.00
6425;BME280;12193;42.642;23.384;2022-07-06T07:53:08;94537.41;;;23.94;77.70
6425;BME280;12193;42.642;23.384;2022-07-06T07:55:40;94535.72;;;23.41;78.93
6425;BME280;12193;42.642;23.384;2022-07-06T07:58:09;94537.31;;;23.71;78.49
6425;BME280;12193;42.642;23.384;2022-07-06T08:00:38;94540.72;;;24.05;77.44
6425;BME280;12193;42.642;23.384;2022-07-06T08:03:08;94543.69;;;24.68;75.01
6425;BME280;12193;42.642;23.384;2022-07-06T08:05:37;94535.97;;;24.48;74.96
6425;BME280;12193;42.642;23.384;2022-07-06T08:08:06;94536.78;;;25.73;70.66
6425;BME280;12193;42.642;23.384;2022-07-06T08:10:35;94530.84;;;26.75;66.76
6425;BME280;12193;42.642;23.384;2022-07-06T08:13:07;94537.34;;;26.42;67.77
6425;BME280;12193;42.642;23.384;2022-07-06T08:15:37;94539.88;;;27.01;65.64
6425;BME280;12193;42.642;23.384;2022-07-06T08:18:06;94535.41;;;26.34;66.64
6425;BME280;12193;42.642;23.384;2022-07-06T08:20:36;94537.75;;;26.76;64.76
6425;BME280;12193;42.642;23.384;2022-07-06T08:23:05;94541.03;;;26.06;65.96
6425;BME280;12193;42.642;23.384;2022-07-06T08:25:34;94530.59;;;27.12;63.37
6425;BME280;12193;42.642;23.384;2022-07-06T08:28:06;94529.38;;;27.83;60.73
6425;BME280;12193;42.642;23.384;2022-07-06T08:30:35;94533.34;;;28.63;58.21
6425;BME280;12193;42.642;23.384;2022-07-06T08:33:05;94534.44;;;28.24;59.63
6425;BME280;12193;42.642;23.384;2022-07-06T08:35:34;94528.09;;;28.42;58.53
6425;BME280;12193;42.642;23.384;2022-07-06T08:38:04;94524.09;;;27.04;61.10
6425;BME280;12193;42.642;23.384;2022-07-06T08:40:34;94523.19;;;27.52;61.08
6425;BME280;12193;42.642;23.384;2022-07-06T08:43:03;94512.47;;;27.96;58.08
6425;BME280;12193;42.642;23.384;2022-07-06T08:45:35;94520.22;;;28.45;57.46
6425;BME280;12193;42.642;23.384;2022-07-06T08:48:07;94518.66;;;28.44;56.58
6425;BME280;12193;42.642;23.384;2022-07-06T08:50:37;94508.81;;;28.70;57.50
6425;BME280;12193;42.642;23.384;2022-07-06T08:53:07;94522.88;;;28.37;56.75
6425;BME280;12193;42.642;23.384;2022-07-06T08:55:36;94521.13;;;27.28;59.92
6425;BME280;12193;42.642;23.384;2022-07-06T08:58:07;94525.53;;;26.48;63.67
6425;BME280;12193;42.642;23.384;2022-07-06T09:00:39;94526.88;;;26.72;62.00
6425;BME280;12193;42.642;23.384;2022-07-06T09:03:11;94525.97;;;26.90;61.17
6425;BME280;12193;42.642;23.384;2022-07-06T09:05:45;94529.78;;;26.49;64.52
6425;BME280;12193;42.642;23.384;2022-07-06T09:08:15;94530.13;;;26.02;66.97
6425;BME280;12193;42.642;23.384;2022-07-06T09:10:44;94525.28;;;25.91;67.05
6425;BME280;12193;42.642;23.384;2022-07-06T09:13:13;94525.53;;;25.31;68.85
6425;BME280;12193;42.642;23.384;2022-07-06T09:15:46;94520.44;;;26.87;62.40
6425;BME280;12193;42.642;23.384;2022-07-06T09:18:16;94507.53;;;27.81;59.88
6425;BME280;12193;42.642;23.384;2022-07-06T09:20:45;94510.91;;;28.98;57.16
6425;BME280;12193;42.642;23.384;2022-07-06T09:23:16;94512.19;;;27.32;60.89
6425;BME280;12193;42.642;23.384;2022-07-06T09:25:48;94510.66;;;26.82;63.69
6425;BME280;12193;42.642;23.384;2022-07-06T09:28:18;94519.00;;;26.00;66.59
6425;BME280;12193;42.642;23.384;2022-07-06T09:30:54;94526.19;;;26.00;67.74
6425;BME280;12193;42.642;23.384;2022-07-06T09:33:23;94522.66;;;25.59;68.50
6425;BME280;12193;42.642;23.384;2022-07-06T09:35:53;94525.81;;;25.61;69.88
6425;BME280;12193;42.642;23.384;2022-07-06T09:38:27;94522.69;;;25.72;69.23
6425;BME280;12193;42.642;23.384;2022-07-06T09:40:57;94521.75;;;24.58;72.50
6425;BME280;12193;42.642;23.384;2022-07-06T09:43:29;94514.09;;;24.75;72.99
6425;BME280;12193;42.642;23.384;2022-07-06T09:46:02;94508.84;;;25.07;72.14
6425;BME280;12193;42.642;23.384;2022-07-06T09:48:31;94515.97;;;25.75;70.87
6425;BME280;12193;42.642;23.384;2022-07-06T09:51:01;94504.59;;;26.28;69.07
6425;BME280;12193;42.642;23.384;2022-07-06T09:53:35;94511.03;;;25.68;68.08
6425;BME280;12193;42.642;23.384;2022-07-06T09:56:04;94496.03;;;25.72;67.86
6425;BME280;12193;42.642;23.384;2022-07-06T09:58:38;94498.63;;;25.77;67.95
6425;BME280;12193;42.642;23.384;2022-07-06T10:01:09;94507.13;;;25.79;68.52
6425;BME280;12193;42.642;23.384;2022-07-06T10:03:42;94507.06;;;26.51;65.97
6425;BME280;12193;42.642;23.384;2022-07-06T10:06:12;94497.94;;;27.80;61.58
6425;BME280;12193;42.642;23.384;2022-07-06T10:08:42;94493.13;;;29.02;57.07
6425;BME280;12193;42.642;23.384;2022-07-06T10:11:12;94497.91;;;28.50;60.04
6425;BME280;12193;42.642;23.384;2022-07-06T10:13:42;94496.13;;;28.37;59.27
6425;BME280;12193;42.642;23.384;2022-07-06T10:16:15;94492.31;;;27.90;60.76
6425;BME280;12193;42.642;23.384;2022-07-06T10:18:46;94492.19;;;28.26;59.38
6425;BME280;12193;42.642;23.384;2022-07-06T10:21:16;94486.38;;;28.02;58.77
6425;BME280;12193;42.642;23.384;2022-07-06T10:23:47;94482.03;;;28.61;59.90
6425;BME280;12193;42.642;23.384;2022-07-06T10:26:17;94485.16;;;28.55;56.55
6425;BME280;12193;42.642;23.384;2022-07-06T10:28:49;94484.72;;;28.78;56.43
6425;BME280;12193;42.642;23.384;2022-07-06T10:31:22;94480.69;;;28.98;57.07
6425;BME280;12193;42.642;23.384;2022-07-06T10:33:52;94477.66;;;29.67;55.40
6425;BME280;12193;42.642;23.384;2022-07-06T10:36:22;94473.13;;;28.83;56.21
6425;BME280;12193;42.642;23.384;2022-07-06T10:38:53;94472.94;;;28.96;56.46
6425;BME280;12193;42.642;23.384;2022-07-06T10:41:32;94477.50;;;29.30;54.35
6425;BME280;12193;42.642;23.384;2022-07-06T10:44:14;94479.25;;;29.17;53.23
6425;BME280;12193;42.642;23.384;2022-07-06T10:46:54;94471.56;;;29.07;54.87
6425;BME280;12193;42.642;23.384;2022-07-06T10:49:25;94461.44;;;29.38;55.09
6425;BME280;12193;42.642;23.384;2022-07-06T10:51:56;94469.34;;;30.06;54.82
6425;BME280;12193;42.642;23.384;2022-07-06T10:54:26;94469.09;;;29.82;55.07
6425;BME280;12193;42.642;23.384;2022-07-06T10:57:09;94476.50;;;29.85;53.63
6425;BME280;12193;42.642;23.384;2022-07-06T10:59:39;94474.41;;;29.90;52.52
6425;BME280;12193;42.642;23.384;2022-07-06T11:02:16;94472.91;;;29.64;54.15
6425;BME280;12193;42.642;23.384;2022-07-06T11:04:47;94459.25;;;29.32;53.78
6425;BME280;12193;42.642;23.384;2022-07-06T11:07:18;94469.84;;;30.37;51.09
6425;BME280;12193;42.642;23.384;2022-07-06T11:09:54;94466.84;;;30.67;51.52
6425;BME280;12193;42.642;23.384;2022-07-06T11:12:24;94470.91;;;29.19;54.70
6425;BME280;12193;42.642;23.384;2022-07-06T11:14:54;94456.91;;;29.13;54.50
6425;BME280;12193;42.642;23.384;2022-07-06T11:17:30;94465.53;;;29.53;50.67
6425;BME280;12193;42.642;23.384;2022-07-06T11:20:11;94465.94;;;29.80;52.34
6425;BME280;12193;42.642;23.384;2022-07-06T11:22:40;94455.66;;;29.90;50.95
6425;BME280;12193;42.642;23.384;2022-07-06T11:25:10;94456.28;;;30.33;52.45
6425;BME280;12193;42.642;23.384;2022-07-06T11:27:42;94456.13;;;30.30;50.46
6425;BME280;12193;42.642;23.384;2022-07-06T11:30:12;94449.44;;;30.44;50.00
6425;BME280;12193;42.642;23.384;2022-07-06T11:32:44;94453.03;;;30.48;50.01
6425;BME280;12193;42.642;23.384;2022-07-06T11:35:21;94447.69;;;30.19;50.36
6425;BME280;12193;42.642;23.384;2022-07-06T11:37:50;94443.41;;;30.18;51.51
6425;BME280;12193;42.642;23.384;2022-07-06T11:40:20;94438.53;;;30.20;50.37
6425;BME280;12193;42.642;23.384;2022-07-06T11:42:53;94430.97;;;30.43;49.62
6425;BME280;12193;42.642;23.384;2022-07-06T11:45:25;94436.78;;;30.45;49.73
6425;BME280;12193;42.642;23.384;2022-07-06T11:48:14;94425.97;;;30.04;49.37
6425;BME280;12193;42.642;23.384;2022-07-06T11:50:44;94421.34;;;30.42;50.00
6425;BME280;12193;42.642;23.384;2022-07-06T11:53:25;94424.97;;;30.17;50.34
6425;BME280;12193;42.642;23.384;2022-07-06T11:55:55;94416.81;;;30.34;49.56
6425;BME280;12193;42.642;23.384;2022-07-06T11:58:32;94418.75;;;29.87;47.78
6425;BME280;12193;42.642;23.384;2022-07-06T12:01:03;94412.63;;;30.24;47.62
6425;BME280;12193;42.642;23.384;2022-07-06T12:03:36;94409.66;;;30.38;48.85
6425;BME280;12193;42.642;23.384;2022-07-06T12:06:13;94412.34;;;30.17;48.74
6425;BME280;12193;42.642;23.384;2022-07-06T12:08:44;94411.41;;;29.76;48.07
6425;BME280;12193;42.642;23.384;2022-07-06T12:11:24;94400.91;;;29.37;48.64
6425;BME280;12193;42.642;23.384;2022-07-06T12:13:55;94411.81;;;29.41;48.78
6425;BME280;12193;42.642;23.384;2022-07-06T12:16:29;94409.94;;;29.24;50.48
6425;BME280;12193;42.642;23.384;2022-07-06T12:19:03;94413.38;;;29.87;48.40
6425;BME280;12193;42.642;23.384;2022-07-06T12:21:34;94412.75;;;30.48;46.32
6425;BME280;12193;42.642;23.384;2022-07-06T12:24:06;94417.03;;;30.49;45.51
6425;BME280;12193;42.642;23.384;2022-07-06T12:26:39;94399.28;;;30.36;45.55
6425;BME280;12193;42.642;23.384;2022-07-06T12:29:10;94402.66;;;31.15;44.67
6425;BME280;12193;42.642;23.384;2022-07-06T12:31:41;94407.31;;;30.85;44.08
6425;BME280;12193;42.642;23.384;2022-07-06T12:34:18;94407.38;;;30.77;45.77
6425;BME280;12193;42.642;23.384;2022-07-06T12:36:50;94398.75;;;30.43;45.76
6425;BME280;12193;42.642;23.384;2022-07-06T12:39:21;94407.53;;;30.02;45.94
6425;BME280;12193;42.642;23.384;2022-07-06T12:41:53;94406.88;;;29.60;46.51
6425;BME280;12193;42.642;23.384;2022-07-06T12:44:23;94401.22;;;29.53;46.38
6425;BME280;12193;42.642;23.384;2022-07-06T12:47:02;94398.22;;;29.91;47.03
6425;BME280;12193;42.642;23.384;2022-07-06T12:49:35;94394.94;;;29.32;47.69
6425;BME280;12193;42.642;23.384;2022-07-06T12:52:10;94387.44;;;28.58;50.08
6425;BME280;12193;42.642;23.384;2022-07-06T12:54:42;94379.19;;;28.20;52.28
6425;BME280;12193;42.642;23.384;2022-07-06T12:57:14;94380.50;;;28.57;52.41
6425;BME280;12193;42.642;23.384;2022-07-06T12:59:45;94383.59;;;28.16;52.42
6425;BME280;12193;42.642;23.384;2022-07-06T13:02:21;94388.06;;;27.90;53.67
6425;BME280;12193;42.642;23.384;2022-07-06T13:04:58;94387.28;;;27.81;53.38
6425;BME280;12193;42.642;23.384;2022-07-06T13:07:29;94386.91;;;27.66;53.24
6425;BME280;12193;42.642;23.384;2022-07-06T13:10:03;94374.78;;;27.38;52.82
6425;BME280;12193;42.642;23.384;2022-07-06T13:12:33;94380.03;;;27.51;53.94
6425;BME280;12193;42.642;23.384;2022-07-06T13:15:03;94384.88;;;26.97;53.81
6425;BME280;12193;42.642;23.384;2022-07-06T13:17:34;94376.75;;;27.02;53.70